Kezdőlap
METAR-TAF:

METAR-TAF

Repülőterek :

Brüsszeli repülőtér

Brüsszel, Belgium

földrajzi szélesség: 50-54N, földrajzi hosszúság: 004-32E, magasság: 55 m

Jelenlegi meteorológiai megfigyelések

A jelentés 35 perccel ezelõtt készült, 08:20 UTC
Észak-északkeleti szél 5 kt, északi és kelet-északkeleti között változik
Hőmérséklet 15°C
Páratartalom 59%
Légköri nyomás 1029 hPa
Látótávolság 10 km, vagy több
felhőtlen 1500 m magasságban, és nincs gomolyfelhõ

METAR: EBBR 200820Z 03005KT 360V070 CAVOK 15/07 Q1029 NOSIG

Idő: 10:55 (08:55 UTC)

Előrejelzés

A jelentés 3 órával és 45 perccel ezelõtt készült, 05:10 UTC
Az előrejelzés 20-én 06 óra UTC és 21-én 12 óra UTC között érvényes
Északkeleti szél 4 kt
Látótávolság 10 km, vagy több
felhőtlen 1500 m magasságban, és nincs gomolyfelhõ

TAF: EBBR 200510Z 2006/2112 04004KT CAVOK

Meteorológiai megfigyelések és előrejelzések több, mint 4000 repülőtéren (METAR és TAF jelentéseket).

A térképen piros és sárga pontok jelzik az elérhető meteorológiai állomásokat.

Mozgassa az egeret a pont fölött, hogy megjelenjen az állomás neve.

Azután kattintson az időjárási megfigyelések és előrejelzések megtekintéséhez.

A térkép megváltoztatása: kattintson a fekete keresztel jelölt zöld gombra ráközelítéshez, a vonallal jelölt zöld gombra távolításhoz, vagy a zöld nyilakra a szomszédos térképek eléréséhez.


METAR-TAF: